Главная страница
METAR-TAF:

METAR-TAF

Аэропорты :

Маджуро, Маршалловы Острова

широта: 07-04N, долгота: 171-17E, высота над уровнем моря: 2 м

Текущие метеонаблюдения

Эта сводка был подготовлена 27 минут назад, в 09:59 UTC
Ветер 17 Узел от северо-восточный
Температура 29°C
Влажность 79%
Давление 1013 hPa
Видимость: 24.1 км
небольшая облачность на высоте 1500 фута
Отдельные облака на высоте 5000 фута
Рассеянная облачность на высоте 30000 фута

METAR: PKMJ 250959Z 04017KT 15SM FEW015 SCT050 BKN300 29/25 A2990

Время: 22:26 (10:26 UTC)

Прогноз

Эта сводка был подготовлена 4 часа и 47 минут назад, в 05:39 UTC
Прогноз действительный с 25-го 06 UTC до 26-го 06 UTC
Ветер 16 Узел от восточно-северо-восточный с порывами до 24 Узел
Видимость: 10 км
Отдельные облака на высоте 1600 фута
Отдельные облака на высоте 4000 фута
Рассеянная облачность на высоте 12000 фута
ливни в окрестностях

TAF: PKMJ 250539Z 2506/2606 06016G24KT P6SM VCSH SCT016 SCT040 BKN120

Метеонаблюдения и прогнозы для более 4000 аэропортов (сводки METAR и TAF).

Имеющиеся станции представлены на карте желтыми и красными точками.

Чтобы увидеть название станции, наведите на нее мышь.

Затем щелкните, чтобы увидеть метеонаблюдения и метеопрогнозы.

Управление картой: чтобы увеличить масштаб, щелкните зеленые кнопки с черным крестиком; чтобы уменьшить масштаб, щелкните зеленую кнопку с тире; для просмотра соседних карт щелкайте зеленые стрелки.


METAR-TAF: